Time;durP1;ratioP1;P1;durP2;ratioP2;P2;SDS_P1;SDS_P2;PMS_P1;PMS_P2;Temp;Humidity;BMP_temperature;BMP_pressure;BME280_temperature;BME280_humidity;BME280_pressure;Samples;Min_cycle;Max_cycle;Signal;HPM_P1;HPM_P2
2022/03/22 00:01:14;;;;;;;9.73;5.65;;;11.70;99.90;;;;;;5056089;28;20110;-73
2022/03/22 00:03:43;;;;;;;10.48;6.38;;;11.60;99.90;;;;;;5056308;28;20079;-72
2022/03/22 00:06:09;;;;;;;8.75;5.38;;;11.60;99.90;;;;;;5055887;28;20569;-72
2022/03/22 00:08:35;;;;;;;11.35;5.80;;;11.60;99.90;;;;;;5056116;28;20116;-71
2022/03/22 00:11:00;;;;;;;9.70;5.78;;;11.50;99.90;;;;;;5055874;28;20018;-73
2022/03/22 00:13:27;;;;;;;12.18;6.72;;;11.50;99.90;;;;;;5055821;28;20478;-72
2022/03/22 00:15:55;;;;;;;10.75;5.55;;;11.50;99.90;;;;;;5055805;28;20021;-71
2022/03/22 00:18:21;;;;;;;9.98;5.78;;;11.50;99.90;;;;;;5055772;28;20026;-72
2022/03/22 00:20:47;;;;;;;9.45;5.40;;;11.50;99.90;;;;;;5055643;28;20025;-71
2022/03/22 00:23:13;;;;;;;11.88;6.13;;;11.40;99.90;;;;;;5037742;28;20025;-71
2022/03/22 00:25:38;;;;;;;11.68;6.47;;;11.30;99.90;;;;;;5055612;28;20021;-72
2022/03/22 00:28:05;;;;;;;10.82;6.47;;;11.00;99.90;;;;;;5055560;28;20104;-72
2022/03/22 00:30:33;;;;;;;11.05;6.25;;;10.90;99.90;;;;;;5055384;28;20453;-71
2022/03/22 00:33:00;;;;;;;9.10;6.13;;;10.90;99.90;;;;;;5055462;28;20389;-72
2022/03/22 00:35:30;;;;;;;8.80;5.90;;;11.00;99.90;;;;;;5055400;28;20056;-72
2022/03/22 00:37:58;;;;;;;14.80;6.85;;;11.00;99.90;;;;;;5055524;28;20146;-73
2022/03/22 00:40:28;;;;;;;9.90;5.85;;;10.90;99.90;;;;;;5055378;28;20032;-72
2022/03/22 00:42:54;;;;;;;9.90;6.32;;;10.80;99.90;;;;;;5055337;28;20039;-73
2022/03/22 00:45:22;;;;;;;13.65;6.60;;;10.80;99.90;;;;;;5055516;28;20130;-72
2022/03/22 00:47:50;;;;;;;14.57;7.10;;;10.90;99.90;;;;;;5053974;28;20059;-73
2022/03/22 00:50:19;;;;;;;10.63;6.47;;;10.90;99.90;;;;;;5055655;28;20021;-71
2022/03/22 00:52:45;;;;;;;11.32;7.05;;;11.00;99.90;;;;;;5055122;28;20025;-71
2022/03/22 00:55:12;;;;;;;10.40;6.50;;;10.80;99.90;;;;;;5055008;28;20017;-71
2022/03/22 00:57:39;;;;;;;10.75;6.75;;;10.80;99.90;;;;;;5037134;28;20025;-73
2022/03/22 01:00:08;;;;;;;13.13;7.70;;;10.90;99.90;;;;;;5055244;28;20384;-73
2022/03/22 01:02:39;;;;;;;11.88;6.97;;;11.00;99.90;;;;;;5054926;28;20477;-71
2022/03/22 01:05:07;;;;;;;11.85;7.18;;;10.90;99.90;;;;;;5054980;28;20025;-72
2022/03/22 01:07:37;;;;;;;11.48;7.35;;;11.00;99.90;;;;;;5055157;28;20052;-72
2022/03/22 01:10:05;;;;;;;12.77;7.00;;;10.80;99.90;;;;;;5055318;28;20458;-73
2022/03/22 01:12:32;;;;;;;15.50;7.47;;;10.80;99.90;;;;;;5054731;28;20314;-71
2022/03/22 01:14:58;;;;;;;12.82;7.55;;;10.60;99.90;;;;;;5036792;28;20397;-71
2022/03/22 01:17:24;;;;;;;12.55;7.50;;;10.60;99.90;;;;;;5054892;28;20021;-72
2022/03/22 01:19:50;;;;;;;10.68;6.80;;;10.60;99.90;;;;;;5054514;28;20032;-72
2022/03/22 01:22:16;;;;;;;11.75;7.60;;;10.50;99.90;;;;;;5054792;28;20421;-71
2022/03/22 01:24:43;;;;;;;11.48;7.68;;;10.40;99.90;;;;;;5054514;28;20381;-72
2022/03/22 01:27:09;;;;;;;13.88;8.07;;;10.30;99.90;;;;;;5054446;28;20024;-71
2022/03/22 01:29:35;;;;;;;12.93;8.27;;;10.20;99.90;;;;;;5054934;28;20386;-72
2022/03/22 01:32:01;;;;;;;12.02;7.63;;;10.20;99.90;;;;;;5054401;28;20028;-73
2022/03/22 01:34:26;;;;;;;13.07;7.97;;;10.30;99.90;;;;;;5054278;28;20021;-71
2022/03/22 01:36:52;;;;;;;11.65;8.27;;;10.30;99.90;;;;;;5054531;28;20017;-72
2022/03/22 01:39:18;;;;;;;13.57;8.68;;;10.30;99.90;;;;;;5054225;28;20025;-72
2022/03/22 01:41:43;;;;;;;14.88;8.70;;;10.30;99.90;;;;;;5054184;28;20068;-71
2022/03/22 01:44:09;;;;;;;12.73;8.05;;;10.20;99.90;;;;;;5054383;28;20048;-72
2022/03/22 01:46:37;;;;;;;15.57;9.57;;;10.10;99.90;;;;;;5054049;28;20075;-72
2022/03/22 01:49:03;;;;;;;12.75;8.88;;;10.00;99.90;;;;;;5053971;28;20112;-72
2022/03/22 01:51:32;;;;;;;12.85;8.52;;;9.90;99.90;;;;;;5053971;28;20025;-71
2022/03/22 01:53:58;;;;;;;21.97;9.03;;;9.80;99.90;;;;;;5053927;28;20474;-71
2022/03/22 01:56:24;;;;;;;11.80;7.80;;;9.80;99.90;;;;;;5053849;28;20101;-73
2022/03/22 01:58:50;;;;;;;13.82;8.02;;;9.90;99.90;;;;;;5053366;28;20029;-73
2022/03/22 02:06:52;;;;;;;12.32;8.60;;;9.60;99.90;;;;;;5053650;28;20064;-71
2022/03/22 02:09:18;;;;;;;12.50;8.35;;;9.60;99.90;;;;;;5053881;28;20025;-72
2022/03/22 02:11:43;;;;;;;15.00;8.68;;;9.70;99.90;;;;;;5053634;28;20021;-72
2022/03/22 02:14:09;;;;;;;12.52;9.13;;;9.60;99.90;;;;;;5053859;28;20017;-72
2022/03/22 02:16:35;;;;;;;12.85;8.23;;;9.50;99.90;;;;;;5053789;28;20025;-70
2022/03/22 02:19:01;;;;;;;16.00;9.70;;;9.40;99.90;;;;;;5053763;28;20043;-72
2022/03/22 02:21:31;;;;;;;13.50;9.20;;;9.40;99.90;;;;;;5053479;28;20142;-71
2022/03/22 02:23:57;;;;;;;13.93;9.23;;;9.30;99.90;;;;;;5054021;28;20025;-73
2022/03/22 02:26:24;;;;;;;14.95;8.52;;;9.20;99.90;;;;;;5053418;28;20041;-71
2022/03/22 02:28:53;;;;;;;13.23;8.73;;;9.20;99.90;;;;;;5053282;28;20043;-73
2022/03/22 02:31:20;;;;;;;12.85;8.95;;;9.10;99.90;;;;;;5053288;28;20064;-71
2022/03/22 02:33:47;;;;;;;15.55;9.75;;;9.10;99.90;;;;;;5053594;28;20108;-73
2022/03/22 02:36:13;;;;;;;13.43;9.70;;;9.20;99.90;;;;;;5053307;28;20021;-73
2022/03/22 02:38:39;;;;;;;15.43;9.55;;;9.20;99.90;;;;;;5053525;28;20087;-72
2022/03/22 02:41:14;;;;;;;14.15;9.52;;;9.10;99.90;;;;;;5053210;28;20033;-72
2022/03/22 02:43:40;;;;;;;15.70;9.77;;;9.00;99.90;;;;;;5053463;28;20025;-73
2022/03/22 02:46:06;;;;;;;15.50;9.65;;;9.00;99.90;;;;;;5053146;28;20456;-72
2022/03/22 02:48:34;;;;;;;15.70;9.73;;;9.00;99.90;;;;;;5053057;28;20021;-73
2022/03/22 02:51:00;;;;;;;15.45;9.10;;;9.00;99.90;;;;;;5053107;28;20017;-72
2022/03/22 02:53:26;;;;;;;17.80;9.85;;;8.90;99.90;;;;;;5053371;28;20028;-71
2022/03/22 02:55:51;;;;;;;16.42;10.27;;;8.90;99.90;;;;;;5052981;28;20029;-73
2022/03/22 02:58:17;;;;;;;15.98;10.52;;;8.90;99.90;;;;;;5053049;28;20088;-73
2022/03/22 03:00:43;;;;;;;15.75;9.98;;;8.90;99.90;;;;;;5053007;28;20029;-73
2022/03/22 03:03:09;;;;;;;16.55;10.02;;;8.80;99.90;;;;;;5053245;28;20134;-71
2022/03/22 03:05:35;;;;;;;23.17;10.13;;;8.80;99.90;;;;;;5052830;28;20119;-71
2022/03/22 03:08:00;;;;;;;19.90;10.77;;;8.60;99.90;;;;;;5053282;28;20017;-71
2022/03/22 03:10:26;;;;;;;16.48;10.60;;;8.70;99.90;;;;;;5054900;28;20078;-72
2022/03/22 03:13:04;;;;;;;14.95;9.73;;;8.70;99.90;;;;;;5039040;28;20028;-72
2022/03/22 03:15:30;;;;;;;14.82;10.05;;;8.60;99.90;;;;;;5057438;28;20166;-72
2022/03/22 03:17:56;;;;;;;16.48;10.95;;;8.60;99.90;;;;;;5056930;28;20432;-73
2022/03/22 03:20:22;;;;;;;18.55;11.07;;;8.70;99.90;;;;;;5056851;28;20016;-73
2022/03/22 03:22:47;;;;;;;18.52;10.57;;;8.70;99.90;;;;;;5057101;28;20408;-71
2022/03/22 03:25:13;;;;;;;18.02;10.63;;;8.70;99.90;;;;;;5056759;28;20029;-70
2022/03/22 03:27:39;;;;;;;15.63;10.25;;;8.70;99.90;;;;;;5056685;28;20017;-72
2022/03/22 03:30:07;;;;;;;15.38;10.10;;;8.60;99.90;;;;;;5057163;28;20100;-72
2022/03/22 03:32:33;;;;;;;19.35;10.70;;;8.60;99.90;;;;;;5057178;28;20021;-72
2022/03/22 03:34:59;;;;;;;16.38;10.85;;;8.60;99.90;;;;;;5056596;28;20025;-71
2022/03/22 03:37:26;;;;;;;17.17;10.98;;;8.60;99.90;;;;;;5056525;28;20047;-72
2022/03/22 03:39:52;;;;;;;17.85;11.07;;;8.60;99.90;;;;;;5056775;28;20025;-71
2022/03/22 03:42:18;;;;;;;17.45;11.07;;;8.50;99.90;;;;;;5056715;28;20047;-73
2022/03/22 03:47:28;;;;;;;18.42;11.00;;;8.40;99.90;;;;;;5056641;28;20040;-71
2022/03/22 03:50:01;;;;;;;15.98;10.65;;;8.40;99.90;;;;;;5056237;28;20462;-71
2022/03/22 03:52:29;;;;;;;18.90;11.38;;;8.30;99.90;;;;;;5056558;28;20025;-71
2022/03/22 03:54:55;;;;;;;15.27;10.00;;;8.10;99.90;;;;;;5056192;28;20545;-71
2022/03/22 03:57:22;;;;;;;16.77;11.25;;;8.00;99.90;;;;;;5056169;28;20496;-71
2022/03/22 03:59:48;;;;;;;18.10;11.50;;;8.10;99.90;;;;;;5056364;28;20431;-71
2022/03/22 04:02:13;;;;;;;15.70;10.82;;;8.30;99.90;;;;;;5056061;28;20021;-72
2022/03/22 04:04:41;;;;;;;17.80;11.20;;;8.40;99.90;;;;;;5056037;28;20025;-72
2022/03/22 04:07:08;;;;;;;18.38;11.07;;;8.40;99.90;;;;;;5055564;28;20053;-72
2022/03/22 04:09:35;;;;;;;16.75;10.68;;;8.40;99.90;;;;;;5055837;28;20055;-71
2022/03/22 04:12:02;;;;;;;18.17;11.98;;;8.30;99.90;;;;;;5055897;28;20017;-71
2022/03/22 04:14:28;;;;;;;17.52;11.10;;;8.40;99.90;;;;;;5055822;28;20508;-73
2022/03/22 04:16:56;;;;;;;19.15;10.88;;;8.40;99.90;;;;;;5055773;28;20028;-72
2022/03/22 04:19:22;;;;;;;19.00;11.65;;;8.30;99.90;;;;;;5056067;28;20021;-71
2022/03/22 04:21:48;;;;;;;19.13;11.68;;;8.20;99.90;;;;;;5055424;28;20123;-72
2022/03/22 04:24:14;;;;;;;17.52;10.68;;;8.30;99.90;;;;;;5055717;28;20540;-72
2022/03/22 04:26:42;;;;;;;16.23;10.73;;;8.30;99.90;;;;;;5037815;28;20112;-72
2022/03/22 04:34:41;;;;;;;17.95;10.85;;;8.20;99.90;;;;;;5056096;28;20086;-72
2022/03/22 04:37:08;;;;;;;18.38;11.35;;;8.10;99.90;;;;;;5055446;28;20021;-71
2022/03/22 04:39:34;;;;;;;18.73;11.27;;;8.10;99.90;;;;;;5055709;28;20036;-70
2022/03/22 04:42:01;;;;;;;18.13;11.15;;;8.00;99.90;;;;;;5055631;28;20024;-71
2022/03/22 04:44:28;;;;;;;18.83;11.68;;;7.90;99.90;;;;;;5055542;28;20108;-72
2022/03/22 04:46:55;;;;;;;18.25;12.07;;;7.90;99.90;;;;;;5055550;28;20040;-71
2022/03/22 04:49:21;;;;;;;17.98;11.68;;;8.00;99.90;;;;;;5055131;28;20033;-71
2022/03/22 04:57:15;;;;;;;18.88;11.07;;;7.80;99.90;;;;;;5055632;28;20070;-72
2022/03/22 04:59:42;;;;;;;21.73;11.38;;;7.90;99.90;;;;;;5055319;28;20021;-71
2022/03/22 05:02:08;;;;;;;20.75;12.73;;;7.80;99.90;;;;;;5055248;28;20108;-71
2022/03/22 05:04:34;;;;;;;17.48;10.18;;;7.70;99.90;;;;;;5037022;28;20456;-72
2022/03/22 05:07:00;;;;;;;18.42;11.27;;;7.70;99.90;;;;;;5054526;28;20049;-72
2022/03/22 05:09:26;;;;;;;17.83;10.90;;;7.70;99.90;;;;;;5054712;28;20095;-71
2022/03/22 05:11:51;;;;;;;15.95;11.23;;;7.60;99.90;;;;;;5054802;28;20013;-72
2022/03/22 05:14:17;;;;;;;19.77;11.25;;;7.60;99.90;;;;;;5055276;28;20100;-72
2022/03/22 05:16:45;;;;;;;19.08;11.35;;;7.40;99.90;;;;;;5054688;28;20024;-70
2022/03/22 05:19:13;;;;;;;17.63;10.90;;;7.50;99.90;;;;;;5054939;28;20028;-71
2022/03/22 05:21:39;;;;;;;20.58;11.40;;;7.50;99.90;;;;;;5054557;28;20017;-71
2022/03/22 05:24:06;;;;;;;18.77;12.02;;;7.50;99.90;;;;;;5054593;28;20478;-72
2022/03/22 05:26:32;;;;;;;17.85;10.77;;;7.50;99.90;;;;;;5054533;28;20032;-72
2022/03/22 05:28:58;;;;;;;17.92;10.20;;;7.50;99.90;;;;;;5036482;28;20037;-72
2022/03/22 05:31:24;;;;;;;17.77;10.63;;;7.50;99.90;;;;;;5054631;28;20017;-71
2022/03/22 05:33:50;;;;;;;18.85;9.85;;;7.50;99.90;;;;;;5053651;28;20029;-72
2022/03/22 05:36:16;;;;;;;15.85;10.20;;;7.50;99.90;;;;;;5054277;28;20031;-71
2022/03/22 05:38:41;;;;;;;19.55;10.07;;;7.40;99.90;;;;;;5054244;28;20025;-71
2022/03/22 05:41:08;;;;;;;21.50;10.45;;;7.50;99.90;;;;;;5054439;28;20017;-70
2022/03/22 05:43:35;;;;;;;15.57;10.38;;;7.50;99.90;;;;;;5054140;28;20461;-71
2022/03/22 05:46:02;;;;;;;16.95;10.10;;;7.40;99.90;;;;;;5054111;28;20021;-71
2022/03/22 05:48:28;;;;;;;18.48;10.40;;;7.40;99.90;;;;;;5053948;28;20492;-71
2022/03/22 05:50:53;;;;;;;16.88;10.57;;;7.50;99.90;;;;;;5054026;28;20489;-71
2022/03/22 05:53:19;;;;;;;21.40;11.82;;;7.40;99.90;;;;;;5053973;28;20021;-71
2022/03/22 05:55:45;;;;;;;17.13;10.95;;;7.40;99.90;;;;;;5053884;28;20459;-72
2022/03/22 05:58:11;;;;;;;17.60;10.80;;;7.30;99.90;;;;;;5053893;28;20025;-72
2022/03/22 06:00:37;;;;;;;17.52;12.75;;;7.40;99.90;;;;;;5053858;28;20032;-72
2022/03/22 06:03:03;;;;;;;18.00;10.10;;;7.30;99.90;;;;;;5053802;28;20027;-71
2022/03/22 06:05:29;;;;;;;16.83;10.88;;;7.30;99.90;;;;;;5053591;28;20046;-71
2022/03/22 06:07:55;;;;;;;16.63;10.15;;;7.30;99.90;;;;;;5054028;28;20028;-72
2022/03/22 06:10:21;;;;;;;17.52;10.82;;;7.30;99.90;;;;;;5053578;28;20496;-71
2022/03/22 06:12:53;;;;;;;14.68;10.25;;;7.30;99.90;;;;;;5053645;28;20025;-71
2022/03/22 06:15:20;;;;;;;17.48;11.55;;;7.30;99.90;;;;;;5054110;28;20107;-71
2022/03/22 06:17:51;;;;;;;16.15;9.25;;;7.40;99.90;;;;;;5053814;28;20028;-72
2022/03/22 06:20:19;;;;;;;17.88;11.27;;;7.30;99.90;;;;;;5053540;28;20035;-71
2022/03/22 06:22:46;;;;;;;19.73;10.55;;;7.40;99.90;;;;;;5053744;28;20033;-71
2022/03/22 06:25:13;;;;;;;16.38;10.68;;;7.50;99.90;;;;;;5053424;28;20048;-71
2022/03/22 06:27:39;;;;;;;16.38;10.80;;;7.60;99.90;;;;;;5053969;28;20017;-72
2022/03/22 06:30:07;;;;;;;17.70;10.43;;;7.70;99.90;;;;;;5053591;28;20058;-71
2022/03/22 06:33:10;;;;;;;17.77;11.25;;;7.70;99.90;;;;;;5053586;28;20013;-71
2022/03/22 06:35:36;;;;;;;20.73;10.27;;;7.90;99.90;;;;;;4953572;29;20065;-72
2022/03/22 06:38:03;;;;;;;19.08;11.43;;;8.00;99.90;;;;;;5033872;28;20458;-71
2022/03/22 06:40:32;;;;;;;17.75;10.77;;;8.20;99.90;;;;;;5053238;28;20028;-72
2022/03/22 06:42:58;;;;;;;18.13;11.00;;;8.30;99.90;;;;;;5053163;28;20100;-73
2022/03/22 06:45:24;;;;;;;18.90;10.18;;;8.50;99.90;;;;;;5053059;28;20055;-70
2022/03/22 06:47:51;;;;;;;16.40;9.65;;;8.70;99.90;;;;;;5053151;28;20028;-70
2022/03/22 06:50:18;;;;;;;15.25;10.52;;;8.80;99.90;;;;;;5053325;28;20173;-71
2022/03/22 06:52:45;;;;;;;17.90;10.95;;;9.00;99.90;;;;;;5053088;28;20028;-71
2022/03/22 06:55:13;;;;;;;20.90;9.55;;;9.20;99.90;;;;;;5053004;28;20021;-72
2022/03/22 06:57:39;;;;;;;17.92;10.20;;;9.50;99.90;;;;;;5053061;28;20017;-73
2022/03/22 07:00:11;;;;;;;17.85;10.60;;;9.70;99.90;;;;;;5053588;28;20029;-71
2022/03/22 07:02:41;;;;;;;15.93;10.05;;;10.20;99.90;;;;;;5053601;28;20107;-71
2022/03/22 07:05:08;;;;;;;16.88;9.93;;;10.00;99.90;;;;;;5052775;28;20056;-72
2022/03/22 07:07:34;;;;;;;16.85;9.50;;;10.20;99.90;;;;;;5052937;28;20485;-69
2022/03/22 07:10:00;;;;;;;15.88;9.60;;;10.40;99.90;;;;;;5052858;28;20038;-70
2022/03/22 07:12:25;;;;;;;16.35;9.68;;;10.50;99.90;;;;;;5053446;28;20021;-71
2022/03/22 07:14:52;;;;;;;18.08;10.50;;;10.70;99.90;;;;;;5052922;28;20104;-71
2022/03/22 07:17:18;;;;;;;16.98;10.05;;;10.80;99.90;;;;;;5052905;28;20100;-71
2022/03/22 07:19:43;;;;;;;17.00;10.13;;;10.90;99.90;;;;;;5052862;28;20555;-68
2022/03/22 07:22:10;;;;;;;16.13;9.73;;;11.00;99.90;;;;;;5052829;28;20104;-70
2022/03/22 07:24:36;;;;;;;15.93;9.88;;;11.10;99.90;;;;;;5034921;28;20029;-70
2022/03/22 07:27:04;;;;;;;;;;;11.20;99.90;;;;;;5053228;28;20025;-71
2022/03/22 07:29:30;;;;;;;17.40;9.63;;;11.30;99.90;;;;;;5053150;28;19909;-73
2022/03/22 07:31:58;;;;;;;15.40;9.30;;;11.30;99.90;;;;;;5053121;28;20501;-69
2022/03/22 07:34:24;;;;;;;22.17;10.93;;;11.50;99.90;;;;;;5052717;28;20013;-70
2022/03/22 07:36:53;;;;;;;20.10;10.43;;;11.70;99.90;;;;;;5053287;28;20037;-68
2022/03/22 07:39:21;;;;;;;16.88;8.90;;;11.80;99.90;;;;;;5052665;28;20021;-70
2022/03/22 07:41:47;;;;;;;75.10;16.33;;;12.00;99.90;;;;;;5052669;28;20060;-69
2022/03/22 07:44:13;;;;;;;16.35;9.50;;;12.00;99.90;;;;;;5052866;28;20028;-72
2022/03/22 07:46:43;;;;;;;18.65;9.93;;;12.30;99.90;;;;;;5052627;28;20103;-68
2022/03/22 07:54:42;;;;;;;15.70;9.07;;;12.80;99.90;;;;;;5052776;28;20024;-69
2022/03/22 07:57:08;;;;;;;16.83;9.57;;;13.10;99.90;;;;;;5055465;28;20104;-69
2022/03/22 07:59:34;;;;;;;15.27;8.93;;;13.50;99.90;;;;;;5056429;28;20063;-72
2022/03/22 08:02:00;;;;;;;17.73;9.07;;;14.40;99.90;;;;;;5056080;28;20043;-71
2022/03/22 08:04:26;;;;;;;14.63;9.35;;;16.80;98.20;;;;;;5038219;28;20052;-69
2022/03/22 08:06:52;;;;;;;18.75;9.07;;;18.30;94.40;;;;;;5055784;28;20053;-70
2022/03/22 08:09:18;;;;;;;12.23;8.32;;;19.00;91.70;;;;;;5055796;28;20067;-72
2022/03/22 08:11:44;;;;;;;13.50;8.88;;;19.30;88.80;;;;;;5056191;28;20028;-73
2022/03/22 08:14:10;;;;;;;12.65;8.45;;;19.90;85.30;;;;;;5056139;28;20083;-69
2022/03/22 08:16:36;;;;;;;14.70;8.35;;;20.10;80.70;;;;;;5055724;28;20462;-70
2022/03/22 08:19:05;;;;;;;13.32;8.35;;;19.90;79.30;;;;;;5037511;28;20408;-71
2022/03/22 08:21:31;;;;;;;18.75;8.77;;;19.40;78.20;;;;;;5055355;28;20067;-72
2022/03/22 08:23:57;;;;;;;12.57;7.60;;;19.00;78.20;;;;;;5055699;28;20489;-69
2022/03/22 08:26:23;;;;;;;11.93;8.35;;;18.60;78.00;;;;;;5055649;28;20109;-71
2022/03/22 08:28:50;;;;;;;12.40;8.23;;;18.50;79.00;;;;;;5055813;28;20115;-74
2022/03/22 08:31:16;;;;;;;14.23;8.75;;;18.60;77.10;;;;;;5055627;28;20032;-72
2022/03/22 08:33:42;;;;;;;12.93;8.20;;;19.00;77.30;;;;;;5055597;28;20024;-72
2022/03/22 08:36:07;;;;;;;14.07;8.52;;;20.10;75.80;;;;;;5054529;28;20028;-78
2022/03/22 08:38:33;;;;;;;16.00;8.35;;;20.40;72.70;;;;;;5054674;28;20013;-70
2022/03/22 08:40:59;;;;;;;12.07;7.50;;;20.30;72.20;;;;;;5055219;28;20088;-76
2022/03/22 08:43:26;;;;;;;12.65;8.10;;;20.20;72.00;;;;;;5055643;28;20013;-70
2022/03/22 08:45:52;;;;;;;12.13;8.43;;;19.90;72.00;;;;;;5055596;28;20027;-74
2022/03/22 08:48:18;;;;;;;13.25;7.65;;;20.20;71.50;;;;;;5036501;28;20021;-75
2022/03/22 08:50:46;;;;;;;15.35;8.15;;;20.70;71.20;;;;;;5055021;28;20036;-71
2022/03/22 08:53:12;;;;;;;13.55;8.18;;;21.70;69.10;;;;;;5055198;28;20017;-70
2022/03/22 08:55:38;;;;;;;15.68;8.15;;;23.30;66.20;;;;;;5054788;28;20371;-78
2022/03/22 08:58:08;;;;;;;10.85;6.93;;;24.60;62.40;;;;;;5054832;28;20022;-74
2022/03/22 09:00:34;;;;;;;10.27;7.53;;;26.00;60.00;;;;;;5055085;28;20068;-70
2022/03/22 09:03:00;;;;;;;;;;;27.80;56.80;;;;;;5055688;28;20053;-71
2022/03/22 09:08:11;;;;;;;10.75;6.97;;;29.60;49.60;;;;;;5053301;28;20412;-70
2022/03/22 09:10:36;;;;;;;11.07;6.97;;;29.50;48.00;;;;;;5054666;28;20029;-71
2022/03/22 09:13:04;;;;;;;15.70;7.75;;;30.00;46.40;;;;;;5054778;28;20036;-75
2022/03/22 09:15:31;;;;;;;11.60;6.75;;;29.80;45.40;;;;;;5054364;28;20029;-76
2022/03/22 09:17:57;;;;;;;10.98;6.97;;;30.20;44.70;;;;;;5055036;28;20126;-71
2022/03/22 09:20:24;;;;;;;11.27;6.80;;;29.70;44.30;;;;;;5054272;28;20025;-72
2022/03/22 09:22:52;;;;;;;9.77;6.88;;;29.70;43.80;;;;;;5054560;28;20032;-73
2022/03/22 09:25:20;;;;;;;12.07;6.68;;;30.30;43.00;;;;;;5054296;28;20025;-71
2022/03/22 09:27:46;;;;;;;11.73;6.80;;;30.10;42.90;;;;;;5054627;28;20482;-73
2022/03/22 09:30:12;;;;;;;14.18;6.65;;;30.00;42.70;;;;;;5054638;28;20283;-73
2022/03/22 09:32:39;;;;;;;11.48;6.70;;;30.10;42.80;;;;;;5054367;28;20025;-74
2022/03/22 09:35:07;;;;;;;13.15;7.20;;;30.00;42.20;;;;;;5053682;28;20025;-76
2022/03/22 09:37:41;;;;;;;12.35;7.10;;;29.30;42.70;;;;;;5053655;28;20025;-71
2022/03/22 09:40:08;;;;;;;10.45;6.28;;;30.30;42.20;;;;;;5054502;28;20025;-72
2022/03/22 09:42:34;;;;;;;11.40;6.50;;;31.60;41.10;;;;;;5054381;28;20490;-70
2022/03/22 09:45:00;;;;;;;9.23;6.60;;;32.40;40.30;;;;;;5054371;28;20519;-76
2022/03/22 09:47:29;;;;;;;10.07;6.70;;;33.10;40.10;;;;;;5035526;28;20567;-80
2022/03/22 09:49:56;;;;;;;10.60;6.65;;;32.80;39.80;;;;;;5035667;28;20063;-79
2022/03/22 09:52:22;;;;;;;10.63;6.43;;;33.40;39.00;;;;;;5054115;28;20565;-77
2022/03/22 09:54:47;;;;;;;;;;;32.70;39.10;;;;;;5054100;28;20032;-77
2022/03/22 09:57:13;;;;;;;11.32;6.78;;;32.30;39.60;;;;;;5035724;28;19905;-72
2022/03/22 09:59:39;;;;;;;;;;;32.10;39.60;;;;;;5054580;28;20025;-77
2022/03/22 10:02:05;;;;;;;11.77;6.30;;;31.90;39.00;;;;;;5053975;28;19904;-75
2022/03/22 10:04:41;;;;;;;12.38;7.03;;;31.40;39.50;;;;;;5053828;28;20053;-78
2022/03/22 10:07:16;;;;;;;9.80;6.47;;;31.80;39.70;;;;;;5053033;28;20080;-75
2022/03/22 10:09:42;;;;;;;10.10;7.15;;;31.90;39.30;;;;;;5053632;28;20029;-76
2022/03/22 10:12:10;;;;;;;11.00;6.35;;;31.80;39.80;;;;;;5035252;28;20021;-71
2022/03/22 10:14:41;;;;;;;19.73;7.15;;;32.50;38.70;;;;;;5053823;28;20474;-73
2022/03/22 10:17:20;;;;;;;14.77;7.10;;;32.70;38.80;;;;;;5053654;28;20025;-75
2022/03/22 10:19:48;;;;;;;10.45;6.38;;;33.10;38.90;;;;;;5052553;28;20025;-75
2022/03/22 10:22:14;;;;;;;9.95;6.80;;;32.70;38.40;;;;;;5053895;28;20474;-75
2022/03/22 10:24:45;;;;;;;11.85;6.43;;;32.50;38.60;;;;;;5053592;28;20024;-75
2022/03/22 10:27:28;;;;;;;10.63;6.38;;;32.10;38.60;;;;;;5053470;28;20021;-78
2022/03/22 10:29:56;;;;;;;11.25;6.38;;;32.10;38.70;;;;;;5053178;28;20035;-71
2022/03/22 10:32:39;;;;;;;13.00;6.55;;;31.80;39.20;;;;;;5052321;28;20033;-72
2022/03/22 10:35:26;;;;;;;8.52;6.10;;;31.60;39.10;;;;;;5053270;28;20025;-81
2022/03/22 10:37:56;;;;;;;9.55;6.57;;;32.40;38.50;;;;;;5039675;28;20021;-78
2022/03/22 10:40:31;;;;;;;10.85;6.28;;;32.40;38.30;;;;;;5033688;28;20079;-70
2022/03/22 10:43:05;;;;;;;11.18;6.22;;;31.90;38.40;;;;;;5033303;28;20029;-76
2022/03/22 10:45:50;;;;;;;10.75;6.43;;;31.20;38.50;;;;;;5045062;28;20025;-78
2022/03/22 10:48:26;;;;;;;9.35;6.43;;;31.90;38.50;;;;;;5034761;28;20079;-69
2022/03/22 10:50:53;;;;;;;7.95;5.88;;;31.90;38.40;;;;;;5053630;28;20025;-70
2022/03/22 10:53:26;;;;;;;10.60;5.97;;;31.40;38.60;;;;;;5053036;28;20370;-73
2022/03/22 10:55:53;;;;;;;11.30;6.53;;;31.90;38.50;;;;;;5053032;28;20095;-77
2022/03/22 10:58:25;;;;;;;11.27;6.05;;;31.60;38.20;;;;;;5052745;28;20493;-76
2022/03/22 11:00:52;;;;;;;10.70;6.38;;;31.70;38.60;;;;;;5053220;28;20025;-74
2022/03/22 11:03:19;;;;;;;8.38;5.93;;;32.10;38.30;;;;;;5053131;28;20032;-78
2022/03/22 11:05:55;;;;;;;8.45;6.20;;;32.40;38.80;;;;;;5052778;28;20164;-86
2022/03/22 11:08:23;;;;;;;7.65;5.90;;;32.90;38.50;;;;;;5034702;28;20025;-80
2022/03/22 11:10:55;;;;;;;9.57;6.07;;;32.90;38.50;;;;;;5034967;28;20032;-80
2022/03/22 11:13:23;;;;;;;11.18;6.13;;;32.50;38.50;;;;;;5052864;28;20017;-69
2022/03/22 11:15:49;;;;;;;10.32;6.20;;;32.70;38.30;;;;;;5052911;28;20025;-74
2022/03/22 11:18:18;;;;;;;10.27;5.65;;;32.90;38.40;;;;;;5052807;28;20021;-76
2022/03/22 11:20:51;;;;;;;9.80;5.90;;;32.90;37.40;;;;;;5051963;28;20033;-82
2022/03/22 11:23:24;;;;;;;8.80;5.72;;;32.70;38.00;;;;;;5052940;28;20025;-71
2022/03/22 11:25:51;;;;;;;19.38;6.28;;;31.60;38.20;;;;;;5053016;28;20083;-77
2022/03/22 11:28:22;;;;;;;9.45;5.53;;;31.60;38.30;;;;;;5051976;28;20037;-69
2022/03/22 11:30:49;;;;;;;11.63;5.65;;;31.50;37.60;;;;;;5053554;28;20039;-70
2022/03/22 11:36:21;;;;;;;8.98;5.55;;;32.30;37.40;;;;;;5056946;28;20032;-73
2022/03/22 11:38:50;;;;;;;9.68;5.70;;;31.60;38.30;;;;;;5055341;28;20056;-70
2022/03/22 11:44:32;;;;;;;11.63;6.35;;;30.40;39.30;;;;;;5055524;28;20127;-67
2022/03/22 11:47:07;;;;;;;15.95;6.30;;;26.60;41.80;;;;;;5055876;28;20086;-66
2022/03/22 11:49:59;;;;;;;10.40;6.22;;;23.90;45.50;;;;;;5055536;28;20068;-67
2022/03/22 11:52:46;;;;;;;9.10;6.15;;;22.20;48.10;;;;;;5051310;28;20623;-67
2022/03/22 11:55:22;;;;;;;9.48;5.50;;;21.40;48.90;;;;;;5055480;28;20037;-73
2022/03/22 11:57:53;;;;;;;9.88;6.53;;;20.90;49.70;;;;;;5056277;28;20489;-67
2022/03/22 12:00:43;;;;;;;9.07;6.47;;;20.60;51.10;;;;;;5056137;28;20031;-72
2022/03/22 12:03:11;;;;;;;11.15;6.63;;;20.40;51.50;;;;;;5056315;28;20033;-72
2022/03/22 12:05:36;;;;;;;13.65;7.00;;;20.10;52.40;;;;;;5055974;28;20126;-71
2022/03/22 12:08:19;;;;;;;12.70;6.53;;;20.00;53.10;;;;;;5056029;28;20068;-73
2022/03/22 12:10:49;;;;;;;9.98;6.38;;;20.00;53.00;;;;;;5056246;28;20074;-72
2022/03/22 12:13:16;;;;;;;11.13;6.63;;;19.80;53.80;;;;;;5056237;28;20028;-72
2022/03/22 12:15:42;;;;;;;10.75;7.00;;;19.90;53.60;;;;;;5056112;28;20504;-67
2022/03/22 12:18:12;;;;;;;9.57;6.20;;;19.50;53.90;;;;;;5055861;28;20025;-66
2022/03/22 12:20:38;;;;;;;14.27;6.90;;;19.20;54.60;;;;;;5055796;28;20029;-66
2022/03/22 12:23:06;;;;;;;14.35;6.13;;;19.30;53.30;;;;;;5056297;28;20039;-67
2022/03/22 12:25:34;;;;;;;11.10;6.38;;;19.00;54.70;;;;;;5056001;28;20048;-67
2022/03/22 12:28:09;;;;;;;10.45;6.57;;;19.00;53.70;;;;;;5055957;28;20025;-67
2022/03/22 12:30:42;;;;;;;10.68;6.47;;;19.00;54.00;;;;;;5056081;28;20025;-67
2022/03/22 12:33:14;;;;;;;10.23;6.50;;;18.90;53.50;;;;;;5056082;28;20454;-71
2022/03/22 12:35:42;;;;;;;10.82;6.15;;;18.80;54.10;;;;;;5055545;28;20014;-72
2022/03/22 12:38:09;;;;;;;10.90;6.55;;;18.60;53.80;;;;;;5055484;28;20429;-67
2022/03/22 12:40:36;;;;;;;11.20;6.25;;;18.50;55.00;;;;;;5055419;28;20393;-67
2022/03/22 12:43:03;;;;;;;12.68;7.15;;;18.60;54.80;;;;;;5055231;28;20036;-71
2022/03/22 12:45:33;;;;;;;12.07;7.25;;;18.70;54.50;;;;;;5055907;28;20032;-71
2022/03/22 12:48:00;;;;;;;10.05;6.65;;;18.50;55.20;;;;;;5055270;28;20063;-71
2022/03/22 12:50:29;;;;;;;9.93;6.97;;;18.50;55.80;;;;;;5055141;28;20056;-71
2022/03/22 12:52:56;;;;;;;12.85;6.70;;;18.50;56.10;;;;;;5055194;28;20025;-71
2022/03/22 12:55:22;;;;;;;11.23;6.55;;;18.40;55.90;;;;;;5055317;28;20021;-68
2022/03/22 12:57:51;;;;;;;13.25;6.25;;;18.50;54.90;;;;;;5055168;28;20067;-67
2022/03/22 13:00:35;;;;;;;10.48;5.63;;;18.70;55.50;;;;;;5055071;28;20074;-70
2022/03/22 13:03:20;;;;;;;10.32;6.70;;;18.60;54.00;;;;;;5037140;28;20036;-67
2022/03/22 13:05:47;;;;;;;12.38;6.88;;;18.50;54.90;;;;;;5055028;28;20135;-68
2022/03/22 13:08:23;;;;;;;11.68;6.47;;;18.40;56.10;;;;;;5054881;28;20142;-68
2022/03/22 13:16:27;;;;;;;9.55;6.57;;;18.70;56.60;;;;;;5055028;28;20071;-67
2022/03/22 13:18:54;;;;;;;12.73;6.68;;;18.70;57.00;;;;;;5054709;28;20063;-68
2022/03/22 13:21:32;;;;;;;12.02;7.38;;;18.90;57.40;;;;;;5054891;28;20020;-71
2022/03/22 13:24:05;;;;;;;13.43;7.22;;;19.00;55.80;;;;;;5054944;28;20047;-69